»·PEaware :: AAL1228 KSAC-KLAS

AAL1228 :: KSAC-KLAS

FLIGHT INFORMATION

Flight Status: Arrived
Operator:
American Airlines
More flights by this operator :: More flights under this callsign
Pilot: Michael M. (12217)
Aircraft: BOEING 737-300
(B733)
More flights by this aircraft type
Origin: KSAC Sacramento Executive
United States
Destination: KLAS McCarran Intl
United States
More flights between these airports :: More routes between these airports
Route: +LIDAT BTY SUNST3
File this flight plan on PilotEdge
Remarks:
Altitude:
(Current/Filed)
33,000ft
Speed:
(Current/Filed)
400kts
Departed: 14-Jul-17 10:03 AM
Arrived: 14-Jul-17 11:12 AM
Distance/Time
Traveled:
337nm/1:09
Distance/Time
To Go:
Arrived

Flight Plot

Page will automatically refresh every two minutes.

Flight plan parsing failed; only flown route is shown


Map Options




Map Legend


Flown Route
Filed Route
Departure Airport
Arrival Airport
Navaid (VOR, NDB)
Fix

Horizontal Profiles

Position Reports

Time Latitude Longitude Heading Altitude Ground
Speed
14-Jul-17 09:41 38.517962 -121.496348 225 27ft 0kts
14-Jul-17 09:42 38.517962 -121.496348 225 27ft 0kts
14-Jul-17 09:43 38.517962 -121.496348 225 27ft 0kts
14-Jul-17 09:44 38.517962 -121.496348 225 27ft 0kts
14-Jul-17 09:45 38.517962 -121.496348 225 27ft 0kts
14-Jul-17 09:46 38.517962 -121.496348 225 27ft 0kts
14-Jul-17 09:47 38.517962 -121.496348 225 27ft 0kts
14-Jul-17 09:48 38.517962 -121.496348 225 27ft 0kts
14-Jul-17 09:49 38.517962 -121.496348 225 27ft 0kts
14-Jul-17 09:50 38.517962 -121.496348 225 27ft 0kts
14-Jul-17 09:51 38.517962 -121.496348 225 27ft 0kts
14-Jul-17 09:52 38.517962 -121.496348 225 27ft 0kts
14-Jul-17 09:53 38.517962 -121.496348 225 27ft 0kts
14-Jul-17 09:54 38.517962 -121.496348 225 27ft 0kts
14-Jul-17 09:55 38.517962 -121.496348 225 27ft 0kts
14-Jul-17 09:56 38.517962 -121.496348 225 27ft 0kts
14-Jul-17 09:57 38.517961 -121.496349 226 27ft 0kts
14-Jul-17 09:58 38.518194 -121.494941 100 27ft 5kts
14-Jul-17 09:59 38.516926 -121.493150 126 26ft 10kts
14-Jul-17 10:00 38.519004 -121.491000 32 27ft 9kts
14-Jul-17 10:01 38.519269 -121.490430 108 27ft 0kts
14-Jul-17 10:02 38.519269 -121.490430 108 27ft 0kts
14-Jul-17 10:03 38.519269 -121.490430 108 27ft 0kts
14-Jul-17 10:04 38.518653 -121.489535 217 27ft 1kts
14-Jul-17 10:05 38.516915 -121.490835 211 24ft 16kts
14-Jul-17 10:06 38.497212 -121.506912 212 142ft 124kts
14-Jul-17 10:07 38.478445 -121.483772 103 2028ft 132kts
14-Jul-17 10:08 38.468284 -121.431563 103 4344ft 171kts
14-Jul-17 10:09 38.454149 -121.356135 103 6180ft 256kts
14-Jul-17 10:10 38.439588 -121.266639 103 9065ft 263kts
14-Jul-17 10:11 38.426185 -121.174999 103 12279ft 269kts
14-Jul-17 10:12 38.412601 -121.081541 103 15571ft 283kts
14-Jul-17 10:13 38.398009 -120.980889 103 18663ft 298kts
14-Jul-17 10:14 38.382794 -120.873542 103 20813ft 337kts
14-Jul-17 10:15 38.338887 -120.758291 127 21981ft 393kts
14-Jul-17 10:16 38.295823 -120.626795 110 24453ft 415kts
14-Jul-17 10:17 38.261025 -120.483904 110 26662ft 432kts
14-Jul-17 10:18 38.225786 -120.338674 110 28626ft 449kts
14-Jul-17 10:19 38.189075 -120.187924 111 31244ft 445kts
14-Jul-17 10:20 38.153262 -120.042157 111 33090ft 451kts
14-Jul-17 10:21 38.116429 -119.893035 111 33240ft 445kts
14-Jul-17 10:22 38.094274 -119.803819 111 33302ft 446kts
14-Jul-17 10:23 38.061048 -119.670769 111 33383ft 447kts
14-Jul-17 10:24 38.028595 -119.541552 111 33410ft 446kts
14-Jul-17 10:25 38.009295 -119.465023 111 33443ft 446kts
14-Jul-17 10:26 37.991457 -119.394522 111 33442ft 446kts
14-Jul-17 10:27 37.959232 -119.267442 111 33439ft 445kts
14-Jul-17 10:28 37.921931 -119.121417 111 33441ft 446kts
14-Jul-17 10:29 37.884913 -118.978024 112 33435ft 447kts
14-Jul-17 10:30 37.854440 -118.860547 112 33441ft 451kts
14-Jul-17 10:31 37.815151 -118.709281 112 33443ft 453kts
14-Jul-17 10:32 37.776173 -118.560119 112 33440ft 453kts
14-Jul-17 10:33 37.737547 -118.413165 112 33334ft 453kts
14-Jul-17 10:34 37.701160 -118.275233 112 33216ft 451kts
14-Jul-17 10:35 37.662781 -118.130748 112 33221ft 452kts
14-Jul-17 10:36 37.623347 -117.983195 112 33221ft 452kts
14-Jul-17 10:37 37.584158 -117.837406 112 33221ft 453kts
14-Jul-17 10:38 37.544558 -117.690925 112 33257ft 453kts
14-Jul-17 10:39 37.505585 -117.547570 112 33273ft 452kts
14-Jul-17 10:40 37.465014 -117.399161 112 33299ft 452kts
14-Jul-17 10:41 37.417100 -117.259025 142 33319ft 434kts
14-Jul-17 10:42 37.318810 -117.182836 152 33322ft 427kts
14-Jul-17 10:43 37.221101 -117.100496 151 33321ft 428kts
14-Jul-17 10:44 37.123494 -117.018011 151 33322ft 430kts
14-Jul-17 10:45 37.026020 -116.935888 150 33321ft 427kts
14-Jul-17 10:46 36.931148 -116.856214 149 33306ft 426kts
14-Jul-17 10:47 36.837322 -116.777837 149 33188ft 426kts
14-Jul-17 10:48 36.751530 -116.678650 133 33144ft 435kts
14-Jul-17 10:49 36.673078 -116.565812 134 31347ft 445kts
14-Jul-17 10:50 36.593295 -116.452299 133 27693ft 450kts
14-Jul-17 10:51 36.515972 -116.342677 134 25295ft 431kts
14-Jul-17 10:52 36.440130 -116.235646 134 22857ft 414kts
14-Jul-17 10:53 36.367285 -116.133384 133 20541ft 398kts
14-Jul-17 10:54 36.298145 -116.036312 133 18268ft 384kts
14-Jul-17 10:55 36.231157 -115.942513 133 16256ft 365kts
14-Jul-17 10:56 36.189298 -115.894901 162 16005ft 335kts
14-Jul-17 10:57 36.107523 -115.953138 252 16034ft 431kts
14-Jul-17 10:58 36.159036 -116.075050 336 16091ft 453kts
14-Jul-17 10:59 36.273852 -116.066346 32 16117ft 412kts
14-Jul-17 11:00 36.331531 -115.941928 86 16098ft 479kts
14-Jul-17 11:01 36.291842 -115.796704 135 16716ft 497kts
14-Jul-17 11:02 36.207076 -115.687498 130 16647ft 436kts
14-Jul-17 11:03 36.133454 -115.582009 137 15147ft 407kts
14-Jul-17 11:04 36.067764 -115.476781 106 13457ft 393kts
14-Jul-17 11:05 36.063276 -115.345198 92 10777ft 401kts
14-Jul-17 11:06 36.052854 -115.214635 99 8685ft 379kts
14-Jul-17 11:07 36.039153 -115.093293 96 6719ft 353kts
14-Jul-17 11:08 36.032912 -114.983662 93 5952ft 279kts
14-Jul-17 11:09 36.039920 -114.903943 42 5812ft 205kts
14-Jul-17 11:10 36.079082 -114.915912 277 4818ft 162kts
14-Jul-17 11:11 36.077997 -114.937790 262 4363ft 163kts
14-Jul-17 11:12 36.073684 -114.983711 266 3724ft 211kts
14-Jul-17 11:13 36.072804 -115.041506 273 4119ft 176kts
14-Jul-17 11:14 36.073498 -115.096638 269 2752ft 155kts
14-Jul-17 11:15 36.073684 -115.136682 271 2077ft 32kts
14-Jul-17 11:16 36.073792 -115.140757 271 2086ft 21kts
14-Jul-17 11:17 36.074891 -115.145848 49 2102ft 1kts
14-Jul-17 11:18 36.074978 -115.144968 88 2100ft 4kts
14-Jul-17 11:19 36.074986 -115.143589 90 2095ft 6kts
14-Jul-17 11:20 36.075038 -115.140013 90 2084ft 10kts
14-Jul-17 11:21 36.076536 -115.137929 359 2074ft 8kts
14-Jul-17 11:22 36.079763 -115.137948 2 2067ft 23kts

Navigation Log

Ident Type
Flight plan parsing failed, navigation log unavailable